PAMR/MRI METAR and TAF weather

Enter ICAO airport designator
Station Type Date Time Source
PAMR METAR 2019/04/25 17:53 UTC NOAA

PAMR 251753Z VRB05KT 10SM CLR 04/M06 A3008 RMK AO2 SLP187 T00441061 10044 21011 50002


Station Type Date Time Source
PAMR Decoded METAR 2019/04/25 17:53 UTC NOAA

ANCHORAGE MERRILL FIELD, AK, United States (PAMR) 61-13N 149-51W
Apr 25, 2019 - 01:53 PM EDT / 2019.04.25 1753 UTC
Wind: Variable at 6 MPH (5 KT):0
Visibility: 10 mile(s):0
Sky conditions: clear
Temperature: 39.9 F (4.4 C)
Dew Point: 21.0 F (-6.1 C)
Relative Humidity: 46%
Pressure (altimeter): 30.08 in. Hg (1018 hPa)
Pressure tendency: 0.01 inches (0.2 hPa) higher than three hours ago
ob: PAMR 251753Z VRB05KT 10SM CLR 04/M06 A3008 RMK AO2 SLP187 T00441061 10044 21011 50002
cycle: 18

Station Type Date Time Source
PAMR TAF UTC NOAA

Error!

Example: see airport list